createdAt,value
2023-01-22T00:01:19.596Z,84.04
2023-01-22T00:03:46.918Z,83.88
2023-01-22T00:06:13.842Z,83.78
2023-01-22T00:08:40.170Z,82.72
2023-01-22T00:11:06.621Z,81.63
2023-01-22T00:13:33.005Z,81.46
2023-01-22T00:16:00.242Z,81.75
2023-01-22T00:18:26.851Z,81.75
2023-01-22T00:20:55.288Z,81.22
2023-01-22T00:23:22.219Z,80.49
2023-01-22T00:25:48.720Z,80.44
2023-01-22T00:28:16.699Z,81.13
2023-01-22T00:30:43.435Z,80.00
2023-01-22T00:33:09.828Z,80.94
2023-01-22T00:35:36.250Z,80.86
2023-01-22T00:38:03.722Z,79.58
2023-01-22T00:40:30.118Z,79.46
2023-01-22T00:42:56.733Z,80.14
2023-01-22T00:45:23.072Z,79.99
2023-01-22T00:47:49.426Z,80.62
2023-01-22T00:50:16.346Z,79.51
2023-01-22T00:52:42.944Z,80.69
2023-01-22T00:55:09.581Z,80.36
2023-01-22T00:57:35.931Z,80.04
2023-01-22T01:00:02.404Z,79.98
2023-01-22T01:02:29.932Z,79.05
2023-01-22T01:04:56.818Z,80.39
2023-01-22T01:07:23.814Z,78.94
2023-01-22T01:09:50.439Z,79.26
2023-01-22T01:12:16.852Z,80.24
2023-01-22T01:14:43.335Z,79.41
2023-01-22T01:17:09.692Z,78.93
2023-01-22T01:19:36.274Z,79.11
2023-01-22T01:22:03.178Z,79.46
2023-01-22T01:24:29.650Z,78.73
2023-01-22T01:26:56.031Z,79.21
2023-01-22T01:29:22.364Z,79.95
2023-01-22T01:31:53.076Z,79.52
2023-01-22T01:34:19.575Z,79.18
2023-01-22T01:36:49.111Z,80.40
2023-01-22T01:39:15.941Z,80.27
2023-01-22T01:41:42.329Z,79.42
2023-01-22T01:44:16.066Z,78.34
2023-01-22T01:46:53.280Z,78.27
2023-01-22T01:49:28.115Z,79.38
2023-01-22T01:51:59.738Z,79.07
2023-01-22T01:54:27.389Z,78.74
2023-01-22T01:57:01.134Z,78.97
2023-01-22T01:59:27.611Z,79.48
2023-01-22T02:01:55.665Z,78.50
2023-01-22T02:04:23.878Z,79.03
2023-01-22T02:06:50.345Z,78.16
2023-01-22T02:09:16.933Z,78.54
2023-01-22T02:11:43.444Z,79.21
2023-01-22T02:14:20.100Z,79.46
2023-01-22T02:16:46.462Z,78.34
2023-01-22T02:19:12.794Z,79.00
2023-01-22T02:21:44.439Z,79.49
2023-01-22T02:24:16.304Z,78.21
2023-01-22T02:26:45.517Z,78.34
2023-01-22T02:29:16.324Z,79.07
2023-01-22T02:31:42.894Z,79.15
2023-01-22T02:34:09.945Z,78.63
2023-01-22T02:36:37.904Z,78.26
2023-01-22T02:39:04.442Z,78.42
2023-01-22T02:41:32.172Z,78.84
2023-01-22T02:43:59.659Z,79.06
2023-01-22T02:46:26.046Z,78.51
2023-01-22T02:48:52.655Z,77.94
2023-01-22T02:51:19.359Z,77.89
2023-01-22T02:53:48.179Z,79.04
2023-01-22T02:56:14.813Z,78.68
2023-01-22T02:58:41.306Z,78.97
2023-01-22T03:01:20.293Z,78.99
2023-01-22T03:03:49.504Z,77.82
2023-01-22T03:06:16.336Z,78.58
2023-01-22T03:08:43.597Z,78.10
2023-01-22T03:11:12.935Z,79.75
2023-01-22T03:13:58.116Z,78.57
2023-01-22T03:16:43.190Z,79.03
2023-01-22T03:19:31.192Z,80.39
2023-01-22T03:21:57.640Z,80.20
2023-01-22T03:24:25.685Z,79.92
2023-01-22T03:26:52.122Z,81.57
2023-01-22T03:29:18.593Z,80.19
2023-01-22T03:31:48.309Z,81.00
2023-01-22T03:34:19.543Z,81.85
2023-01-22T03:36:46.044Z,82.59
2023-01-22T03:39:13.219Z,82.90
2023-01-22T03:41:39.810Z,81.99
2023-01-22T03:44:09.194Z,82.61
2023-01-22T03:46:36.495Z,83.23
2023-01-22T03:49:03.709Z,83.17
2023-01-22T03:51:30.589Z,83.22
2023-01-22T03:53:58.339Z,83.49
2023-01-22T03:56:26.282Z,84.53
2023-01-22T03:58:57.903Z,84.67
2023-01-22T04:01:26.773Z,84.32
2023-01-22T04:03:54.969Z,84.72
2023-01-22T04:06:24.893Z,85.09
2023-01-22T04:08:54.478Z,84.63
2023-01-22T04:11:25.276Z,84.05
2023-01-22T04:13:54.571Z,84.20
2023-01-22T04:16:21.416Z,85.31
2023-01-22T04:19:06.385Z,84.77
2023-01-22T04:21:53.555Z,85.63
2023-01-22T04:24:19.927Z,85.89
2023-01-22T04:26:47.352Z,84.97
2023-01-22T04:29:16.796Z,85.13
2023-01-22T04:31:44.245Z,85.20
2023-01-22T04:34:47.344Z,84.29
2023-01-22T04:37:20.239Z,85.44
2023-01-22T04:39:46.617Z,84.67
2023-01-22T04:42:12.986Z,84.92
2023-01-22T04:44:39.402Z,85.14
2023-01-22T04:47:07.479Z,85.35
2023-01-22T04:49:34.787Z,85.50
2023-01-22T04:52:01.419Z,85.45
2023-01-22T04:54:29.131Z,86.43
2023-01-22T04:56:55.474Z,86.42
2023-01-22T04:59:21.903Z,86.29
2023-01-22T05:01:50.836Z,85.68
2023-01-22T05:04:19.006Z,85.24
2023-01-22T05:06:46.194Z,86.78
2023-01-22T05:09:13.629Z,87.00
2023-01-22T05:11:50.931Z,86.08
2023-01-22T05:14:17.630Z,86.38
2023-01-22T05:16:46.889Z,85.62
2023-01-22T05:19:13.239Z,85.87
2023-01-22T05:21:39.619Z,86.83
2023-01-22T05:24:08.077Z,85.67
2023-01-22T05:26:34.869Z,85.05
2023-01-22T05:29:10.212Z,85.42
2023-01-22T05:31:59.964Z,85.36
2023-01-22T05:34:30.311Z,86.13
2023-01-22T05:36:56.887Z,85.19
2023-01-22T05:39:25.096Z,86.26
2023-01-22T05:41:54.271Z,86.13
2023-01-22T05:44:20.675Z,86.40
2023-01-22T05:46:51.356Z,84.90
2023-01-22T05:49:29.578Z,84.84
2023-01-22T05:51:58.288Z,85.00
2023-01-22T05:54:24.911Z,84.91
2023-01-22T05:56:51.919Z,85.43
2023-01-22T05:59:18.312Z,85.27
2023-01-22T06:01:51.513Z,85.01
2023-01-22T06:04:18.292Z,85.46
2023-01-22T06:06:44.634Z,84.16
2023-01-22T06:09:12.991Z,84.51
2023-01-22T06:11:40.074Z,84.86
2023-01-22T06:14:07.695Z,84.20
2023-01-22T06:16:34.998Z,84.13
2023-01-22T06:19:12.415Z,85.14
2023-01-22T06:21:50.518Z,85.28
2023-01-22T06:24:17.749Z,84.53
2023-01-22T06:26:44.232Z,84.42
2023-01-22T06:29:13.104Z,84.22
2023-01-22T06:31:41.103Z,85.53
2023-01-22T06:34:08.886Z,84.54
2023-01-22T06:36:35.665Z,84.69
2023-01-22T06:39:02.755Z,83.95
2023-01-22T06:41:39.547Z,84.58
2023-01-22T06:44:09.518Z,85.25
2023-01-22T06:46:36.816Z,84.28
2023-01-22T06:49:06.389Z,85.03
2023-01-22T06:51:32.874Z,85.06
2023-01-22T06:53:59.572Z,84.90
2023-01-22T06:56:27.246Z,85.43
2023-01-22T06:58:55.742Z,84.68
2023-01-22T07:01:22.245Z,84.66
2023-01-22T07:03:48.672Z,84.81
2023-01-22T07:06:18.595Z,86.25
2023-01-22T07:08:45.217Z,85.17
2023-01-22T07:11:11.825Z,85.31
2023-01-22T07:13:38.167Z,85.87
2023-01-22T07:16:05.395Z,86.40
2023-01-22T07:18:32.020Z,85.28
2023-01-22T07:21:03.504Z,85.56
2023-01-22T07:23:30.762Z,85.71
2023-01-22T07:25:57.440Z,86.32
2023-01-22T07:28:24.073Z,85.69
2023-01-22T07:30:50.659Z,85.39
2023-01-22T07:33:18.757Z,86.20
2023-01-22T07:35:53.179Z,87.20
2023-01-22T07:38:19.522Z,87.21
2023-01-22T07:40:45.878Z,86.10
2023-01-22T07:43:14.952Z,86.93
2023-01-22T07:45:41.584Z,86.54
2023-01-22T07:48:10.626Z,86.25
2023-01-22T07:50:39.932Z,86.61
2023-01-22T07:53:07.463Z,86.97
2023-01-22T07:55:33.860Z,86.73
2023-01-22T07:58:03.607Z,86.36
2023-01-22T08:00:30.552Z,86.93
2023-01-22T08:02:57.007Z,87.05
2023-01-22T08:05:23.482Z,86.14
2023-01-22T08:07:49.932Z,87.51
2023-01-22T08:10:17.070Z,86.56
2023-01-22T08:12:46.178Z,86.16
2023-01-22T08:15:13.899Z,86.86
2023-01-22T08:17:40.676Z,87.32
2023-01-22T08:20:08.293Z,87.72
2023-01-22T08:22:34.694Z,87.23
2023-01-22T08:25:01.061Z,86.86
2023-01-22T08:27:27.454Z,86.69
2023-01-22T08:29:53.783Z,85.83
2023-01-22T08:32:20.248Z,87.40
2023-01-22T08:34:46.658Z,86.01
2023-01-22T08:37:13.094Z,86.59
2023-01-22T08:39:39.460Z,85.83
2023-01-22T08:42:05.821Z,85.99
2023-01-22T08:44:32.173Z,86.79
2023-01-22T08:46:58.575Z,87.39
2023-01-22T08:49:25.143Z,87.06
2023-01-22T08:51:51.666Z,85.96
2023-01-22T08:54:18.397Z,86.17
2023-01-22T08:56:44.831Z,86.98
2023-01-22T08:59:11.213Z,86.21
2023-01-22T09:01:37.541Z,86.10
2023-01-22T09:04:09.427Z,87.03
2023-01-22T09:06:37.357Z,85.83
2023-01-22T09:09:04.141Z,85.86
2023-01-22T09:11:31.312Z,85.87
2023-01-22T09:13:58.085Z,87.16
2023-01-22T09:16:25.908Z,86.68
2023-01-22T09:18:53.218Z,85.75
2023-01-22T09:21:19.945Z,86.30
2023-01-22T09:23:46.347Z,87.16
2023-01-22T09:26:12.701Z,86.22
2023-01-22T09:28:39.053Z,86.15
2023-01-22T09:31:05.458Z,86.76
2023-01-22T09:33:31.853Z,86.11
2023-01-22T09:36:12.614Z,86.67
2023-01-22T09:38:39.299Z,85.78
2023-01-22T09:41:34.633Z,86.52
2023-01-22T09:44:09.321Z,86.50
2023-01-22T09:46:44.123Z,85.75
2023-01-22T09:49:32.145Z,86.00
2023-01-22T09:52:00.842Z,86.74
2023-01-22T09:54:29.134Z,86.25
2023-01-22T09:57:01.987Z,85.35
2023-01-22T09:59:35.968Z,86.41
2023-01-22T10:02:21.472Z,86.08
2023-01-22T10:04:52.080Z,85.62
2023-01-22T10:07:32.347Z,85.75
2023-01-22T10:10:03.622Z,85.61
2023-01-22T10:12:30.216Z,86.66
2023-01-22T10:14:56.982Z,87.04
2023-01-22T10:17:28.503Z,86.11
2023-01-22T10:19:59.567Z,86.33
2023-01-22T10:22:27.070Z,86.30
2023-01-22T10:24:53.852Z,86.59
2023-01-22T10:27:24.603Z,85.99
2023-01-22T10:30:07.400Z,86.37
2023-01-22T10:32:33.841Z,86.56
2023-01-22T10:35:20.938Z,86.33
2023-01-22T10:37:55.776Z,86.77
2023-01-22T10:40:37.763Z,86.75
2023-01-22T10:43:06.148Z,86.89
2023-01-22T10:45:32.657Z,85.30
2023-01-22T10:48:15.942Z,86.42
2023-01-22T10:50:43.899Z,86.76
2023-01-22T10:53:31.344Z,86.91
2023-01-22T10:55:59.656Z,85.65
2023-01-22T10:58:34.203Z,86.71
2023-01-22T11:01:21.646Z,86.21
2023-01-22T11:03:48.065Z,86.56
2023-01-22T11:06:22.078Z,85.09
2023-01-22T11:08:53.392Z,85.77
2023-01-22T11:11:26.117Z,85.27
2023-01-22T11:14:01.221Z,85.80
2023-01-22T11:16:31.895Z,85.34
2023-01-22T11:19:02.893Z,85.51
2023-01-22T11:21:33.735Z,85.92
2023-01-22T11:24:13.960Z,86.72
2023-01-22T11:27:04.174Z,86.54
2023-01-22T11:29:48.544Z,86.09
2023-01-22T11:32:17.794Z,85.89
2023-01-22T11:35:05.015Z,86.34
2023-01-22T11:37:49.512Z,85.57
2023-01-22T11:40:28.429Z,86.08
2023-01-22T11:43:11.752Z,86.30
2023-01-22T11:45:56.574Z,85.80
2023-01-22T11:48:47.659Z,85.00
2023-01-22T11:51:26.165Z,85.13
2023-01-22T11:54:06.160Z,86.30
2023-01-22T11:57:09.837Z,85.70
2023-01-22T12:00:15.801Z,86.02
2023-01-22T12:03:06.098Z,86.34
2023-01-22T12:05:57.916Z,85.76
2023-01-22T12:08:36.326Z,85.87
2023-01-22T12:11:11.731Z,85.90
2023-01-22T12:13:44.043Z,85.20
2023-01-22T12:16:19.485Z,86.12
2023-01-22T12:19:16.804Z,85.41
2023-01-22T12:21:54.949Z,86.03
2023-01-22T12:24:50.074Z,85.99
2023-01-22T12:27:26.768Z,85.01
2023-01-22T12:30:01.733Z,86.11
2023-01-22T12:32:30.531Z,85.38
2023-01-22T12:35:17.902Z,84.91
2023-01-22T12:38:12.429Z,84.97
2023-01-22T12:41:04.404Z,84.62
2023-01-22T12:43:42.040Z,84.49
2023-01-22T12:46:21.571Z,85.48
2023-01-22T12:49:03.205Z,85.42
2023-01-22T12:51:42.304Z,85.04
2023-01-22T12:54:09.851Z,85.07
2023-01-22T12:56:36.241Z,84.72
2023-01-22T12:59:02.687Z,84.90
2023-01-22T13:01:35.166Z,84.76
2023-01-22T13:04:06.973Z,84.24
2023-01-22T13:06:38.787Z,84.57
2023-01-22T13:09:22.415Z,85.06
2023-01-22T13:11:48.751Z,84.54
2023-01-22T13:14:21.297Z,84.36
2023-01-22T13:16:54.494Z,84.80
2023-01-22T13:19:31.474Z,84.76
2023-01-22T13:22:00.138Z,84.88
2023-01-22T13:24:26.585Z,84.63
2023-01-22T13:27:03.283Z,84.07
2023-01-22T13:29:36.692Z,85.33
2023-01-22T13:32:15.730Z,84.31
2023-01-22T13:34:42.208Z,83.91
2023-01-22T13:37:27.657Z,84.36
2023-01-22T13:39:54.040Z,84.09
2023-01-22T13:42:21.155Z,83.89
2023-01-22T13:44:50.583Z,84.20
2023-01-22T13:47:32.958Z,84.68
2023-01-22T13:49:59.904Z,84.18
2023-01-22T13:52:28.449Z,84.58
2023-01-22T13:55:01.914Z,84.11
2023-01-22T13:57:28.341Z,84.16
2023-01-22T14:00:00.315Z,83.80
2023-01-22T14:02:35.509Z,84.31
2023-01-22T14:05:02.163Z,83.62
2023-01-22T14:07:34.594Z,84.31
2023-01-22T14:10:22.545Z,84.28
2023-01-22T14:12:59.806Z,84.16
2023-01-22T14:15:26.395Z,84.47
2023-01-22T14:17:52.756Z,84.18
2023-01-22T14:20:19.671Z,84.14
2023-01-22T14:22:49.541Z,84.10
2023-01-22T14:25:16.126Z,83.70
2023-01-22T14:27:49.479Z,83.89
2023-01-22T14:30:19.011Z,84.89
2023-01-22T14:32:45.930Z,84.15
2023-01-22T14:35:26.269Z,84.35
2023-01-22T14:37:53.576Z,84.11
2023-01-22T14:40:21.996Z,84.42
2023-01-22T14:42:48.940Z,84.19
2023-01-22T14:45:17.399Z,83.87
2023-01-22T14:47:44.265Z,83.69
2023-01-22T14:50:11.417Z,84.36
2023-01-22T14:52:38.253Z,83.90
2023-01-22T14:55:05.574Z,84.00
2023-01-22T14:57:32.004Z,84.60
2023-01-22T14:59:58.348Z,84.36
2023-01-22T15:02:24.756Z,84.09
2023-01-22T15:04:51.311Z,83.64
2023-01-22T15:07:17.649Z,83.86
2023-01-22T15:09:44.050Z,84.27
2023-01-22T15:12:10.655Z,84.15
2023-01-22T15:14:37.103Z,83.92
2023-01-22T15:17:03.476Z,84.07
2023-01-22T15:19:38.954Z,84.51
2023-01-22T15:22:07.195Z,84.17
2023-01-22T15:24:33.525Z,83.65
2023-01-22T15:27:00.493Z,83.85
2023-01-22T15:29:26.938Z,84.27
2023-01-22T15:31:56.505Z,84.27
2023-01-22T15:34:23.725Z,84.67
2023-01-22T15:36:50.592Z,84.34
2023-01-22T15:39:17.137Z,84.59
2023-01-22T15:41:44.142Z,84.83
2023-01-22T15:44:12.896Z,84.70
2023-01-22T15:46:41.659Z,84.57
2023-01-22T15:49:10.144Z,84.42
2023-01-22T15:51:37.078Z,84.85
2023-01-22T15:54:05.302Z,84.34
2023-01-22T15:56:34.448Z,84.22
2023-01-22T15:59:01.335Z,85.00
2023-01-22T16:01:28.543Z,85.02
2023-01-22T16:03:55.455Z,84.90
2023-01-22T16:06:24.329Z,85.22
2023-01-22T16:08:52.614Z,85.00
2023-01-22T16:11:20.521Z,84.89
2023-01-22T16:13:47.348Z,84.62
2023-01-22T16:16:15.201Z,84.61
2023-01-22T16:18:41.868Z,84.25
2023-01-22T16:21:09.535Z,84.53
2023-01-22T16:23:38.518Z,84.20
2023-01-22T16:26:06.824Z,85.14
2023-01-22T16:28:33.146Z,85.20
2023-01-22T16:31:09.101Z,85.05
2023-01-22T16:33:38.100Z,84.89
2023-01-22T16:36:07.461Z,84.92
2023-01-22T16:38:35.039Z,85.64
2023-01-22T16:41:24.724Z,85.72
2023-01-22T16:44:06.494Z,85.35
2023-01-22T16:46:36.879Z,84.89
2023-01-22T16:49:05.755Z,84.67
2023-01-22T16:51:38.060Z,85.26
2023-01-22T16:54:06.360Z,84.65
2023-01-22T16:56:33.603Z,84.88
2023-01-22T16:59:00.235Z,85.36
2023-01-22T17:01:28.830Z,85.17
2023-01-22T17:03:55.275Z,85.56
2023-01-22T17:06:39.675Z,85.43
2023-01-22T17:09:07.620Z,85.84
2023-01-22T17:11:34.176Z,85.60
2023-01-22T17:14:00.850Z,85.37
2023-01-22T17:16:27.303Z,85.06
2023-01-22T17:18:54.784Z,85.48
2023-01-22T17:21:21.215Z,85.67
2023-01-22T17:23:47.763Z,84.94
2023-01-22T17:26:15.985Z,85.83
2023-01-22T17:28:42.909Z,85.52
2023-01-22T17:31:18.557Z,85.57
2023-01-22T17:33:45.237Z,86.38
2023-01-22T17:36:14.718Z,85.68
2023-01-22T17:38:41.113Z,85.93
2023-01-22T17:41:10.353Z,85.56
2023-01-22T17:43:38.474Z,86.18
2023-01-22T17:46:08.907Z,85.69
2023-01-22T17:48:36.862Z,86.14
2023-01-22T17:51:09.697Z,85.76
2023-01-22T17:53:38.884Z,86.45
2023-01-22T17:56:24.056Z,86.08
2023-01-22T17:58:53.883Z,85.54
2023-01-22T18:01:23.576Z,86.09
2023-01-22T18:03:50.650Z,85.67
2023-01-22T18:06:18.616Z,85.88
2023-01-22T18:08:45.186Z,85.93
2023-01-22T18:11:14.406Z,86.54
2023-01-22T18:13:41.065Z,86.50
2023-01-22T18:16:09.996Z,86.04
2023-01-22T18:18:36.651Z,86.40
2023-01-22T18:21:03.282Z,86.33
2023-01-22T18:23:29.701Z,86.70
2023-01-22T18:25:57.817Z,86.24
2023-01-22T18:28:26.521Z,86.66
2023-01-22T18:30:54.224Z,86.22
2023-01-22T18:33:21.149Z,86.73
2023-01-22T18:35:50.822Z,86.96
2023-01-22T18:38:20.574Z,86.83
2023-01-22T18:40:48.150Z,86.10
2023-01-22T18:43:14.628Z,86.37
2023-01-22T18:45:41.197Z,87.25
2023-01-22T18:48:10.904Z,87.32
2023-01-22T18:50:38.072Z,86.74
2023-01-22T18:53:05.426Z,86.38
2023-01-22T18:55:31.805Z,86.70
2023-01-22T18:58:03.592Z,87.19
2023-01-22T19:00:30.002Z,86.71
2023-01-22T19:02:57.675Z,87.25
2023-01-22T19:05:26.150Z,87.56
2023-01-22T19:07:52.998Z,87.29
2023-01-22T19:10:19.706Z,87.32
2023-01-22T19:12:46.517Z,87.36
2023-01-22T19:15:13.071Z,86.97
2023-01-22T19:17:40.013Z,87.34
2023-01-22T19:20:10.526Z,86.95
2023-01-22T19:22:38.886Z,87.55
2023-01-22T19:25:08.733Z,87.33
2023-01-22T19:27:35.452Z,87.61
2023-01-22T19:30:04.729Z,87.03
2023-01-22T19:32:34.819Z,87.77
2023-01-22T19:35:04.099Z,87.65
2023-01-22T19:37:30.549Z,86.94
2023-01-22T19:40:00.124Z,87.80
2023-01-22T19:42:26.908Z,87.07
2023-01-22T19:44:53.460Z,87.44
2023-01-22T19:47:20.050Z,87.80
2023-01-22T19:49:46.906Z,88.11
2023-01-22T19:52:13.307Z,88.38
2023-01-22T19:54:47.228Z,88.05
2023-01-22T19:57:14.948Z,88.05
2023-01-22T19:59:42.498Z,88.84
2023-01-22T20:02:13.994Z,88.96
2023-01-22T20:04:40.754Z,88.92
2023-01-22T20:07:07.324Z,88.92
2023-01-22T20:09:35.197Z,88.99
2023-01-22T20:12:02.921Z,88.43
2023-01-22T20:14:31.563Z,88.42
2023-01-22T20:17:00.148Z,89.07
2023-01-22T20:19:26.923Z,89.12
2023-01-22T20:21:53.562Z,89.00
2023-01-22T20:24:20.149Z,88.30
2023-01-22T20:26:46.839Z,89.30
2023-01-22T20:29:13.206Z,88.79
2023-01-22T20:31:39.799Z,88.57
2023-01-22T20:34:06.260Z,89.20
2023-01-22T20:36:32.699Z,89.00
2023-01-22T20:39:00.682Z,89.33
2023-01-22T20:41:27.346Z,88.98
2023-01-22T20:43:54.735Z,88.79
2023-01-22T20:46:25.695Z,89.32
2023-01-22T20:48:55.825Z,89.48
2023-01-22T20:51:25.574Z,88.89
2023-01-22T20:53:56.648Z,89.25
2023-01-22T20:56:27.209Z,89.28
2023-01-22T20:58:58.723Z,88.59
2023-01-22T21:01:25.879Z,88.49
2023-01-22T21:03:52.820Z,88.49
2023-01-22T21:06:19.896Z,88.91
2023-01-22T21:08:51.853Z,88.72
2023-01-22T21:11:20.521Z,88.63
2023-01-22T21:13:48.754Z,88.81
2023-01-22T21:16:18.542Z,88.56
2023-01-22T21:18:46.292Z,88.27
2023-01-22T21:21:18.842Z,88.69
2023-01-22T21:23:47.897Z,88.49
2023-01-22T21:26:16.168Z,88.22
2023-01-22T21:28:42.546Z,88.87
2023-01-22T21:31:12.115Z,88.52
2023-01-22T21:33:39.166Z,88.27
2023-01-22T21:36:07.508Z,87.45
2023-01-22T21:38:34.210Z,87.94
2023-01-22T21:41:10.321Z,87.39
2023-01-22T21:43:55.072Z,87.57
2023-01-22T21:46:27.187Z,87.48
2023-01-22T21:48:58.046Z,88.13
2023-01-22T21:51:25.556Z,87.99
2023-01-22T21:53:56.594Z,87.71
2023-01-22T21:56:23.874Z,87.94
2023-01-22T21:58:50.684Z,88.10
2023-01-22T22:01:20.529Z,87.88
2023-01-22T22:03:47.271Z,87.33
2023-01-22T22:06:14.267Z,87.66
2023-01-22T22:08:43.380Z,87.60
2023-01-22T22:11:12.295Z,87.71
2023-01-22T22:13:38.860Z,88.08
2023-01-22T22:16:07.278Z,87.28
2023-01-22T22:18:34.037Z,87.19
2023-01-22T22:21:03.555Z,88.39
2023-01-22T22:23:30.660Z,87.54
2023-01-22T22:25:57.690Z,87.96
2023-01-22T22:28:24.698Z,87.22
2023-01-22T22:30:51.225Z,87.94
2023-01-22T22:33:17.937Z,87.97
2023-01-22T22:35:46.340Z,88.18
2023-01-22T22:38:14.328Z,88.28
2023-01-22T22:40:40.776Z,87.63
2023-01-22T22:43:07.246Z,88.22
2023-01-22T22:45:37.758Z,87.60
2023-01-22T22:48:05.196Z,87.38
2023-01-22T22:50:31.646Z,87.98
2023-01-22T22:52:58.029Z,87.74
2023-01-22T22:55:26.510Z,87.28
2023-01-22T22:57:52.835Z,87.68
2023-01-22T23:00:19.666Z,87.67
2023-01-22T23:02:46.193Z,87.78
2023-01-22T23:05:12.536Z,87.61
2023-01-22T23:07:38.908Z,87.50
2023-01-22T23:10:05.699Z,87.18
2023-01-22T23:12:32.047Z,87.25
2023-01-22T23:14:58.391Z,87.08
2023-01-22T23:17:24.798Z,87.06
2023-01-22T23:19:51.251Z,87.07
2023-01-22T23:22:22.293Z,87.22
2023-01-22T23:24:48.620Z,87.38
2023-01-22T23:27:14.942Z,87.29
2023-01-22T23:29:41.266Z,87.04
2023-01-22T23:32:07.571Z,87.37
2023-01-22T23:34:34.072Z,87.29
2023-01-22T23:37:00.451Z,87.10
2023-01-22T23:39:26.810Z,86.89
2023-01-22T23:41:53.197Z,87.21
2023-01-22T23:44:19.584Z,87.04
2023-01-22T23:46:46.093Z,87.20
2023-01-22T23:49:12.675Z,87.22
2023-01-22T23:51:41.951Z,87.10
2023-01-22T23:54:08.803Z,86.85
2023-01-22T23:56:36.454Z,86.89
2023-01-22T23:59:03.716Z,86.70
